sensor_id;sensor_type;location;lat;lon;timestamp;P1;durP1;ratioP1;P2;durP2;ratioP2
75504;SDS011;64085;54.974;73.410;2023-05-10T00:01:11;26.70;;;19.08;;
75504;SDS011;64085;54.974;73.410;2023-05-10T00:03:36;23.05;;;14.70;;
75504;SDS011;64085;54.974;73.410;2023-05-10T00:06:02;27.50;;;16.80;;
75504;SDS011;64085;54.974;73.410;2023-05-10T00:13:57;30.42;;;16.42;;
75504;SDS011;64085;54.974;73.410;2023-05-10T00:16:22;26.05;;;17.75;;
75504;SDS011;64085;54.974;73.410;2023-05-10T00:18:48;22.90;;;14.85;;
75504;SDS011;64085;54.974;73.410;2023-05-10T00:21:14;32.03;;;19.92;;
75504;SDS011;64085;54.974;73.410;2023-05-10T00:23:58;30.02;;;18.80;;
75504;SDS011;64085;54.974;73.410;2023-05-10T00:26:43;31.10;;;18.08;;
75504;SDS011;64085;54.974;73.410;2023-05-10T00:29:08;24.48;;;16.52;;
75504;SDS011;64085;54.974;73.410;2023-05-10T00:31:34;22.85;;;16.88;;
75504;SDS011;64085;54.974;73.410;2023-05-10T00:33:59;29.33;;;18.70;;
75504;SDS011;64085;54.974;73.410;2023-05-10T00:36:25;25.40;;;15.07;;
75504;SDS011;64085;54.974;73.410;2023-05-10T00:38:51;19.75;;;12.70;;
75504;SDS011;64085;54.974;73.410;2023-05-10T00:41:16;22.40;;;15.02;;
75504;SDS011;64085;54.974;73.410;2023-05-10T00:44:00;24.15;;;16.67;;
75504;SDS011;64085;54.974;73.410;2023-05-10T00:46:44;24.45;;;14.05;;
75504;SDS011;64085;54.974;73.410;2023-05-10T00:49:29;21.63;;;15.52;;
75504;SDS011;64085;54.974;73.410;2023-05-10T00:51:55;21.75;;;14.82;;
75504;SDS011;64085;54.974;73.410;2023-05-10T00:57:05;24.88;;;16.77;;
75504;SDS011;64085;54.974;73.410;2023-05-10T00:59:30;24.02;;;15.85;;
75504;SDS011;64085;54.974;73.410;2023-05-10T01:02:15;22.08;;;13.13;;
75504;SDS011;64085;54.974;73.410;2023-05-10T01:07:25;18.67;;;13.85;;
75504;SDS011;64085;54.974;73.410;2023-05-10T01:09:51;19.63;;;13.93;;
75504;SDS011;64085;54.974;73.410;2023-05-10T01:12:37;16.63;;;13.32;;
75504;SDS011;64085;54.974;73.410;2023-05-10T01:15:06;17.65;;;14.30;;
75504;SDS011;64085;54.974;73.410;2023-05-10T01:17:37;20.25;;;14.55;;
75504;SDS011;64085;54.974;73.410;2023-05-10T01:20:06;24.83;;;15.43;;
75504;SDS011;64085;54.974;73.410;2023-05-10T01:33:19;22.58;;;16.70;;
75504;SDS011;64085;54.974;73.410;2023-05-10T01:36:03;20.23;;;15.65;;
75504;SDS011;64085;54.974;73.410;2023-05-10T01:38:50;21.52;;;16.88;;
75504;SDS011;64085;54.974;73.410;2023-05-10T01:49:41;23.27;;;17.33;;
75504;SDS011;64085;54.974;73.410;2023-05-10T01:52:15;23.10;;;17.40;;
75504;SDS011;64085;54.974;73.410;2023-05-10T01:54:59;24.23;;;18.15;;
75504;SDS011;64085;54.974;73.410;2023-05-10T01:57:30;23.67;;;17.83;;
75504;SDS011;64085;54.974;73.410;2023-05-10T01:59:58;23.90;;;18.38;;
75504;SDS011;64085;54.974;73.410;2023-05-10T02:02:26;25.90;;;18.02;;
75504;SDS011;64085;54.974;73.410;2023-05-10T02:04:54;25.77;;;20.17;;
75504;SDS011;64085;54.974;73.410;2023-05-10T02:07:38;20.67;;;18.42;;
75504;SDS011;64085;54.974;73.410;2023-05-10T02:10:05;21.58;;;19.33;;
75504;SDS011;64085;54.974;73.410;2023-05-10T02:12:50;21.63;;;18.27;;
75504;SDS011;64085;54.974;73.410;2023-05-10T02:15:18;21.33;;;17.27;;
75504;SDS011;64085;54.974;73.410;2023-05-10T02:20:51;22.83;;;16.73;;
75504;SDS011;64085;54.974;73.410;2023-05-10T02:23:20;21.88;;;17.00;;
75504;SDS011;64085;54.974;73.410;2023-05-10T02:25:47;18.00;;;16.15;;
75504;SDS011;64085;54.974;73.410;2023-05-10T02:28:14;17.60;;;15.70;;
75504;SDS011;64085;54.974;73.410;2023-05-10T02:30:42;17.92;;;15.88;;
75504;SDS011;64085;54.974;73.410;2023-05-10T02:33:08;18.80;;;16.90;;
75504;SDS011;64085;54.974;73.410;2023-05-10T02:35:53;22.15;;;17.25;;
75504;SDS011;64085;54.974;73.410;2023-05-10T02:38:20;18.60;;;16.40;;
75504;SDS011;64085;54.974;73.410;2023-05-10T02:43:15;17.40;;;15.48;;
75504;SDS011;64085;54.974;73.410;2023-05-10T02:45:43;20.35;;;17.92;;
75504;SDS011;64085;54.974;73.410;2023-05-10T02:48:13;18.00;;;16.10;;
75504;SDS011;64085;54.974;73.410;2023-05-10T02:50:38;19.10;;;17.08;;
75504;SDS011;64085;54.974;73.410;2023-05-10T02:56:35;20.13;;;17.33;;
75504;SDS011;64085;54.974;73.410;2023-05-10T02:59:04;19.15;;;17.02;;
75504;SDS011;64085;54.974;73.410;2023-05-10T03:01:48;20.02;;;16.90;;
75504;SDS011;64085;54.974;73.410;2023-05-10T03:10:01;20.95;;;16.65;;
75504;SDS011;64085;54.974;73.410;2023-05-10T03:15:13;19.60;;;17.52;;
75504;SDS011;64085;54.974;73.410;2023-05-10T03:18:18;19.30;;;17.30;;
75504;SDS011;64085;54.974;73.410;2023-05-10T03:20:48;22.67;;;16.73;;
75504;SDS011;64085;54.974;73.410;2023-05-10T03:26:24;19.58;;;16.50;;
75504;SDS011;64085;54.974;73.410;2023-05-10T03:29:11;17.45;;;15.65;;
75504;SDS011;64085;54.974;73.410;2023-05-10T03:31:39;16.77;;;14.80;;
75504;SDS011;64085;54.974;73.410;2023-05-10T03:34:05;17.80;;;16.00;;
75504;SDS011;64085;54.974;73.410;2023-05-10T03:36:32;18.25;;;16.30;;
75504;SDS011;64085;54.974;73.410;2023-05-10T03:41:42;16.60;;;14.88;;
75504;SDS011;64085;54.974;73.410;2023-05-10T03:44:07;20.00;;;18.23;;
75504;SDS011;64085;54.974;73.410;2023-05-10T03:46:51;18.67;;;16.77;;
75504;SDS011;64085;54.974;73.410;2023-05-10T03:49:17;19.25;;;16.77;;
75504;SDS011;64085;54.974;73.410;2023-05-10T03:57:30;16.75;;;15.20;;
75504;SDS011;64085;54.974;73.410;2023-05-10T03:59:56;18.83;;;16.13;;
75504;SDS011;64085;54.974;73.410;2023-05-10T04:02:21;17.15;;;15.23;;
75504;SDS011;64085;54.974;73.410;2023-05-10T04:04:47;19.17;;;17.38;;
75504;SDS011;64085;54.974;73.410;2023-05-10T04:07:13;18.63;;;16.83;;
75504;SDS011;64085;54.974;73.410;2023-05-10T04:09:39;19.63;;;15.90;;
75504;SDS011;64085;54.974;73.410;2023-05-10T04:12:05;17.20;;;15.45;;
75504;SDS011;64085;54.974;73.410;2023-05-10T04:14:31;17.15;;;15.43;;
75504;SDS011;64085;54.974;73.410;2023-05-10T04:16:57;17.00;;;15.50;;
75504;SDS011;64085;54.974;73.410;2023-05-10T04:19:22;18.10;;;16.20;;
75504;SDS011;64085;54.974;73.410;2023-05-10T04:24:32;15.35;;;13.98;;
75504;SDS011;64085;54.974;73.410;2023-05-10T04:26:58;15.65;;;14.13;;
75504;SDS011;64085;54.974;73.410;2023-05-10T04:29:24;14.98;;;13.48;;
75504;SDS011;64085;54.974;73.410;2023-05-10T04:31:49;16.00;;;14.50;;
75504;SDS011;64085;54.974;73.410;2023-05-10T04:34:16;14.70;;;13.50;;
75504;SDS011;64085;54.974;73.410;2023-05-10T04:36:41;15.43;;;14.02;;
75504;SDS011;64085;54.974;73.410;2023-05-10T04:39:25;14.73;;;13.25;;
75504;SDS011;64085;54.974;73.410;2023-05-10T04:41:51;15.40;;;13.90;;
75504;SDS011;64085;54.974;73.410;2023-05-10T04:44:17;14.88;;;13.43;;
75504;SDS011;64085;54.974;73.410;2023-05-10T04:46:42;12.90;;;11.70;;
75504;SDS011;64085;54.974;73.410;2023-05-10T04:54:56;19.02;;;14.52;;
75504;SDS011;64085;54.974;73.410;2023-05-10T04:57:40;16.00;;;14.50;;
75504;SDS011;64085;54.974;73.410;2023-05-10T05:00:05;14.55;;;13.18;;
75504;SDS011;64085;54.974;73.410;2023-05-10T05:05:16;14.40;;;12.85;;
75504;SDS011;64085;54.974;73.410;2023-05-10T05:07:42;17.38;;;15.77;;
75504;SDS011;64085;54.974;73.410;2023-05-10T05:10:26;15.75;;;14.35;;
75504;SDS011;64085;54.974;73.410;2023-05-10T05:12:51;14.48;;;13.07;;
75504;SDS011;64085;54.974;73.410;2023-05-10T05:15:17;17.52;;;12.35;;
75504;SDS011;64085;54.974;73.410;2023-05-10T05:17:43;13.65;;;12.18;;
75504;SDS011;64085;54.974;73.410;2023-05-10T05:20:27;14.02;;;12.55;;
75504;SDS011;64085;54.974;73.410;2023-05-10T05:22:52;13.95;;;12.68;;
75504;SDS011;64085;54.974;73.410;2023-05-10T05:25:36;15.68;;;13.98;;
75504;SDS011;64085;54.974;73.410;2023-05-10T05:28:02;17.35;;;15.75;;
75504;SDS011;64085;54.974;73.410;2023-05-10T05:30:46;14.65;;;13.15;;
75504;SDS011;64085;54.974;73.410;2023-05-10T05:33:15;14.30;;;12.95;;
75504;SDS011;64085;54.974;73.410;2023-05-10T05:35:41;13.70;;;12.35;;
75504;SDS011;64085;54.974;73.410;2023-05-10T05:38:08;13.75;;;12.45;;
75504;SDS011;64085;54.974;73.410;2023-05-10T05:40:33;14.70;;;13.30;;
75504;SDS011;64085;54.974;73.410;2023-05-10T05:42:59;15.27;;;13.77;;
75504;SDS011;64085;54.974;73.410;2023-05-10T05:45:43;15.70;;;14.30;;
75504;SDS011;64085;54.974;73.410;2023-05-10T05:48:09;13.95;;;12.63;;
75504;SDS011;64085;54.974;73.410;2023-05-10T05:50:34;13.73;;;12.52;;
75504;SDS011;64085;54.974;73.410;2023-05-10T05:53:00;12.70;;;11.50;;
75504;SDS011;64085;54.974;73.410;2023-05-10T05:55:26;13.40;;;12.05;;
75504;SDS011;64085;54.974;73.410;2023-05-10T05:57:51;14.95;;;13.45;;
75504;SDS011;64085;54.974;73.410;2023-05-10T06:00:17;14.40;;;13.00;;
75504;SDS011;64085;54.974;73.410;2023-05-10T06:02:43;13.32;;;12.00;;
75504;SDS011;64085;54.974;73.410;2023-05-10T06:05:08;14.57;;;13.13;;
75504;SDS011;64085;54.974;73.410;2023-05-10T06:10:19;13.05;;;11.73;;
75504;SDS011;64085;54.974;73.410;2023-05-10T06:12:44;13.02;;;11.80;;
75504;SDS011;64085;54.974;73.410;2023-05-10T06:15:10;13.07;;;11.77;;
75504;SDS011;64085;54.974;73.410;2023-05-10T06:17:54;13.80;;;12.50;;
75504;SDS011;64085;54.974;73.410;2023-05-10T06:20:40;13.30;;;12.00;;
75504;SDS011;64085;54.974;73.410;2023-05-10T06:23:07;13.15;;;11.85;;
75504;SDS011;64085;54.974;73.410;2023-05-10T06:25:33;12.38;;;11.18;;
75504;SDS011;64085;54.974;73.410;2023-05-10T06:27:58;12.93;;;11.57;;
75504;SDS011;64085;54.974;73.410;2023-05-10T06:30:25;14.05;;;12.50;;
75504;SDS011;64085;54.974;73.410;2023-05-10T06:32:53;13.00;;;11.60;;
75504;SDS011;64085;54.974;73.410;2023-05-10T06:35:20;15.60;;;12.82;;
75504;SDS011;64085;54.974;73.410;2023-05-10T06:37:46;12.95;;;11.38;;
75504;SDS011;64085;54.974;73.410;2023-05-10T06:40:11;13.60;;;11.32;;
75504;SDS011;64085;54.974;73.410;2023-05-10T06:42:37;15.40;;;13.68;;
75504;SDS011;64085;54.974;73.410;2023-05-10T06:45:03;15.43;;;11.27;;
75504;SDS011;64085;54.974;73.410;2023-05-10T06:47:47;14.20;;;11.63;;
75504;SDS011;64085;54.974;73.410;2023-05-10T06:50:13;13.77;;;11.75;;
75504;SDS011;64085;54.974;73.410;2023-05-10T06:52:38;16.33;;;10.98;;
75504;SDS011;64085;54.974;73.410;2023-05-10T06:55:04;14.38;;;11.32;;
75504;SDS011;64085;54.974;73.410;2023-05-10T06:57:49;16.75;;;11.75;;
75504;SDS011;64085;54.974;73.410;2023-05-10T07:02:59;18.75;;;11.55;;
75504;SDS011;64085;54.974;73.410;2023-05-10T07:05:25;14.82;;;10.70;;
75504;SDS011;64085;54.974;73.410;2023-05-10T07:07:52;13.95;;;9.75;;
75504;SDS011;64085;54.974;73.410;2023-05-10T07:13:21;12.20;;;10.50;;
75504;SDS011;64085;54.974;73.410;2023-05-10T07:15:47;12.63;;;9.57;;
75504;SDS011;64085;54.974;73.410;2023-05-10T07:20:57;11.80;;;9.35;;
75504;SDS011;64085;54.974;73.410;2023-05-10T07:23:41;16.10;;;9.88;;
75504;SDS011;64085;54.974;73.410;2023-05-10T07:26:07;15.55;;;8.75;;
75504;SDS011;64085;54.974;73.410;2023-05-10T07:28:34;13.35;;;9.27;;
75504;SDS011;64085;54.974;73.410;2023-05-10T07:31:02;11.68;;;10.40;;
75504;SDS011;64085;54.974;73.410;2023-05-10T07:33:28;12.95;;;9.88;;
75504;SDS011;64085;54.974;73.410;2023-05-10T07:35:53;13.90;;;10.13;;
75504;SDS011;64085;54.974;73.410;2023-05-10T07:38:19;12.88;;;9.80;;
75504;SDS011;64085;54.974;73.410;2023-05-10T07:40:45;13.15;;;10.15;;
75504;SDS011;64085;54.974;73.410;2023-05-10T07:43:12;12.60;;;9.80;;
75504;SDS011;64085;54.974;73.410;2023-05-10T07:45:56;14.30;;;10.20;;
75504;SDS011;64085;54.974;73.410;2023-05-10T07:51:07;16.00;;;9.27;;
75504;SDS011;64085;54.974;73.410;2023-05-10T07:53:34;14.38;;;9.23;;
75504;SDS011;64085;54.974;73.410;2023-05-10T07:56:22;16.88;;;9.88;;
75504;SDS011;64085;54.974;73.410;2023-05-10T07:58:54;12.90;;;9.20;;
75504;SDS011;64085;54.974;73.410;2023-05-10T08:01:21;13.05;;;9.73;;
75504;SDS011;64085;54.974;73.410;2023-05-10T08:03:47;11.43;;;8.32;;
75504;SDS011;64085;54.974;73.410;2023-05-10T08:06:14;11.93;;;8.68;;
75504;SDS011;64085;54.974;73.410;2023-05-10T08:08:58;13.27;;;8.98;;
75504;SDS011;64085;54.974;73.410;2023-05-10T08:11:24;12.70;;;8.50;;
75504;SDS011;64085;54.974;73.410;2023-05-10T08:13:50;14.52;;;9.38;;
75504;SDS011;64085;54.974;73.410;2023-05-10T08:16:16;16.42;;;8.75;;
75504;SDS011;64085;54.974;73.410;2023-05-10T08:18:43;11.82;;;8.77;;
75504;SDS011;64085;54.974;73.410;2023-05-10T08:21:10;11.60;;;8.88;;
75504;SDS011;64085;54.974;73.410;2023-05-10T08:26:20;11.82;;;9.05;;
75504;SDS011;64085;54.974;73.410;2023-05-10T08:28:46;13.20;;;8.77;;
75504;SDS011;64085;54.974;73.410;2023-05-10T08:31:12;12.77;;;9.13;;
75504;SDS011;64085;54.974;73.410;2023-05-10T08:33:37;10.45;;;7.85;;
75504;SDS011;64085;54.974;73.410;2023-05-10T08:36:03;10.35;;;8.05;;
75504;SDS011;64085;54.974;73.410;2023-05-10T08:38:29;9.98;;;7.68;;
75504;SDS011;64085;54.974;73.410;2023-05-10T08:41:13;9.80;;;7.45;;
75504;SDS011;64085;54.974;73.410;2023-05-10T08:43:38;11.20;;;9.02;;
75504;SDS011;64085;54.974;73.410;2023-05-10T08:46:06;9.88;;;7.78;;
75504;SDS011;64085;54.974;73.410;2023-05-10T08:48:34;9.63;;;8.10;;
75504;SDS011;64085;54.974;73.410;2023-05-10T08:51:00;12.32;;;8.18;;
75504;SDS011;64085;54.974;73.410;2023-05-10T08:53:28;10.32;;;8.13;;
75504;SDS011;64085;54.974;73.410;2023-05-10T08:55:56;12.35;;;8.60;;
75504;SDS011;64085;54.974;73.410;2023-05-10T08:58:22;9.40;;;7.85;;
75504;SDS011;64085;54.974;73.410;2023-05-10T09:00:48;11.85;;;8.35;;
75504;SDS011;64085;54.974;73.410;2023-05-10T09:03:17;10.82;;;6.28;;
75504;SDS011;64085;54.974;73.410;2023-05-10T09:05:43;10.13;;;6.60;;
75504;SDS011;64085;54.974;73.410;2023-05-10T09:08:09;11.70;;;7.15;;
75504;SDS011;64085;54.974;73.410;2023-05-10T09:10:55;10.60;;;7.65;;
75504;SDS011;64085;54.974;73.410;2023-05-10T09:13:22;11.50;;;7.03;;
75504;SDS011;64085;54.974;73.410;2023-05-10T09:15:48;11.07;;;7.07;;
75504;SDS011;64085;54.974;73.410;2023-05-10T09:18:14;10.75;;;6.88;;
75504;SDS011;64085;54.974;73.410;2023-05-10T09:20:40;11.80;;;7.05;;
75504;SDS011;64085;54.974;73.410;2023-05-10T09:23:06;8.35;;;6.60;;
75504;SDS011;64085;54.974;73.410;2023-05-10T09:25:32;11.68;;;7.20;;
75504;SDS011;64085;54.974;73.410;2023-05-10T09:27:59;9.18;;;6.20;;
75504;SDS011;64085;54.974;73.410;2023-05-10T09:30:28;7.25;;;5.53;;
75504;SDS011;64085;54.974;73.410;2023-05-10T09:36:17;9.55;;;5.82;;
75504;SDS011;64085;54.974;73.410;2023-05-10T09:38:46;9.85;;;5.90;;
75504;SDS011;64085;54.974;73.410;2023-05-10T09:41:22;8.07;;;5.82;;
75504;SDS011;64085;54.974;73.410;2023-05-10T09:46:15;9.07;;;5.82;;
75504;SDS011;64085;54.974;73.410;2023-05-10T09:48:41;9.05;;;5.90;;
75504;SDS011;64085;54.974;73.410;2023-05-10T09:51:24;7.43;;;6.40;;
75504;SDS011;64085;54.974;73.410;2023-05-10T09:54:10;11.65;;;5.40;;
75504;SDS011;64085;54.974;73.410;2023-05-10T09:59:26;8.57;;;5.88;;
75504;SDS011;64085;54.974;73.410;2023-05-10T10:01:53;13.60;;;6.50;;
75504;SDS011;64085;54.974;73.410;2023-05-10T10:04:21;8.75;;;5.68;;
75504;SDS011;64085;54.974;73.410;2023-05-10T10:06:57;13.38;;;6.35;;
75504;SDS011;64085;54.974;73.410;2023-05-10T10:09:25;8.77;;;5.72;;
75504;SDS011;64085;54.974;73.410;2023-05-10T10:11:50;7.43;;;5.25;;
75504;SDS011;64085;54.974;73.410;2023-05-10T10:14:18;12.32;;;5.72;;
75504;SDS011;64085;54.974;73.410;2023-05-10T10:16:43;9.88;;;6.00;;
75504;SDS011;64085;54.974;73.410;2023-05-10T10:19:10;10.18;;;6.22;;
75504;SDS011;64085;54.974;73.410;2023-05-10T10:21:36;11.90;;;5.88;;
75504;SDS011;64085;54.974;73.410;2023-05-10T10:24:01;8.18;;;6.00;;
75504;SDS011;64085;54.974;73.410;2023-05-10T10:29:22;9.15;;;6.22;;
75504;SDS011;64085;54.974;73.410;2023-05-10T10:35:13;7.13;;;5.65;;
75504;SDS011;64085;54.974;73.410;2023-05-10T10:43:22;10.10;;;6.32;;
75504;SDS011;64085;54.974;73.410;2023-05-10T10:52:12;12.02;;;6.05;;
75504;SDS011;64085;54.974;73.410;2023-05-10T10:57:32;10.90;;;6.20;;
75504;SDS011;64085;54.974;73.410;2023-05-10T11:00:28;7.50;;;6.10;;
75504;SDS011;64085;54.974;73.410;2023-05-10T11:03:14;6.97;;;6.28;;
75504;SDS011;64085;54.974;73.410;2023-05-10T11:08:31;7.45;;;5.88;;
75504;SDS011;64085;54.974;73.410;2023-05-10T11:24:56;7.45;;;5.38;;
75504;SDS011;64085;54.974;73.410;2023-05-10T11:27:25;7.00;;;5.20;;
75504;SDS011;64085;54.974;73.410;2023-05-10T11:32:39;7.85;;;5.40;;
75504;SDS011;64085;54.974;73.410;2023-05-10T11:35:08;9.57;;;5.18;;
75504;SDS011;64085;54.974;73.410;2023-05-10T11:37:40;9.30;;;5.93;;
75504;SDS011;64085;54.974;73.410;2023-05-10T11:40:25;10.68;;;5.50;;
75504;SDS011;64085;54.974;73.410;2023-05-10T11:42:51;9.75;;;5.40;;
75504;SDS011;64085;54.974;73.410;2023-05-10T11:45:17;6.35;;;4.53;;
75504;SDS011;64085;54.974;73.410;2023-05-10T11:48:01;9.38;;;4.85;;
75504;SDS011;64085;54.974;73.410;2023-05-10T11:50:29;8.27;;;5.00;;
75504;SDS011;64085;54.974;73.410;2023-05-10T11:52:56;8.73;;;5.18;;
75504;SDS011;64085;54.974;73.410;2023-05-10T11:55:24;8.45;;;5.30;;
75504;SDS011;64085;54.974;73.410;2023-05-10T11:57:53;8.93;;;5.90;;
75504;SDS011;64085;54.974;73.410;2023-05-10T12:00:20;7.88;;;5.78;;
75504;SDS011;64085;54.974;73.410;2023-05-10T12:02:46;7.82;;;5.07;;
75504;SDS011;64085;54.974;73.410;2023-05-10T12:05:34;7.53;;;5.50;;
75504;SDS011;64085;54.974;73.410;2023-05-10T12:08:14;7.63;;;4.70;;
75504;SDS011;64085;54.974;73.410;2023-05-10T12:11:04;7.40;;;5.07;;
75504;SDS011;64085;54.974;73.410;2023-05-10T12:13:32;10.10;;;4.60;;
75504;SDS011;64085;54.974;73.410;2023-05-10T12:16:12;8.23;;;4.45;;
75504;SDS011;64085;54.974;73.410;2023-05-10T12:18:41;6.85;;;4.35;;
75504;SDS011;64085;54.974;73.410;2023-05-10T12:21:09;7.70;;;4.55;;
75504;SDS011;64085;54.974;73.410;2023-05-10T12:29:17;5.50;;;4.25;;
75504;SDS011;64085;54.974;73.410;2023-05-10T12:34:52;9.90;;;5.28;;
75504;SDS011;64085;54.974;73.410;2023-05-10T12:37:11;7.68;;;3.85;;
75504;SDS011;64085;54.974;73.410;2023-05-10T12:39:57;10.02;;;4.65;;
75504;SDS011;64085;54.974;73.410;2023-05-10T12:42:22;12.63;;;4.60;;
75504;SDS011;64085;54.974;73.410;2023-05-10T12:44:54;12.13;;;5.32;;
75504;SDS011;64085;54.974;73.410;2023-05-10T12:47:21;7.45;;;4.65;;
75504;SDS011;64085;54.974;73.410;2023-05-10T12:49:47;6.07;;;3.55;;
75504;SDS011;64085;54.974;73.410;2023-05-10T12:52:13;8.27;;;4.50;;
75504;SDS011;64085;54.974;73.410;2023-05-10T12:54:39;7.05;;;3.67;;
75504;SDS011;64085;54.974;73.410;2023-05-10T12:59:49;7.70;;;4.18;;
75504;SDS011;64085;54.974;73.410;2023-05-10T13:02:15;5.85;;;4.25;;
75504;SDS011;64085;54.974;73.410;2023-05-10T13:04:43;6.45;;;3.88;;
75504;SDS011;64085;54.974;73.410;2023-05-10T13:07:09;7.82;;;3.88;;
75504;SDS011;64085;54.974;73.410;2023-05-10T13:09:35;6.95;;;4.20;;
75504;SDS011;64085;54.974;73.410;2023-05-10T13:12:01;5.95;;;4.03;;
75504;SDS011;64085;54.974;73.410;2023-05-10T13:14:45;8.23;;;4.05;;
75504;SDS011;64085;54.974;73.410;2023-05-10T13:17:10;5.88;;;3.92;;
75504;SDS011;64085;54.974;73.410;2023-05-10T13:19:36;5.57;;;3.67;;
75504;SDS011;64085;54.974;73.410;2023-05-10T13:22:02;6.07;;;3.63;;
75504;SDS011;64085;54.974;73.410;2023-05-10T13:24:28;9.32;;;4.15;;
75504;SDS011;64085;54.974;73.410;2023-05-10T13:26:53;7.10;;;4.43;;
75504;SDS011;64085;54.974;73.410;2023-05-10T13:29:20;7.18;;;3.65;;
75504;SDS011;64085;54.974;73.410;2023-05-10T13:31:47;6.47;;;4.07;;
75504;SDS011;64085;54.974;73.410;2023-05-10T13:34:13;13.43;;;4.75;;
75504;SDS011;64085;54.974;73.410;2023-05-10T13:36:38;4.47;;;3.85;;
75504;SDS011;64085;54.974;73.410;2023-05-10T13:39:04;8.68;;;4.20;;
75504;SDS011;64085;54.974;73.410;2023-05-10T13:41:30;10.10;;;3.63;;
75504;SDS011;64085;54.974;73.410;2023-05-10T13:43:56;7.07;;;4.13;;
75504;SDS011;64085;54.974;73.410;2023-05-10T13:46:21;4.97;;;3.67;;
75504;SDS011;64085;54.974;73.410;2023-05-10T13:48:47;6.72;;;4.00;;
75504;SDS011;64085;54.974;73.410;2023-05-10T13:51:13;7.35;;;3.63;;
75504;SDS011;64085;54.974;73.410;2023-05-10T13:53:58;6.63;;;4.07;;
75504;SDS011;64085;54.974;73.410;2023-05-10T13:56:24;7.15;;;4.03;;
75504;SDS011;64085;54.974;73.410;2023-05-10T13:58:50;6.88;;;3.95;;
75504;SDS011;64085;54.974;73.410;2023-05-10T14:01:16;5.35;;;3.47;;
75504;SDS011;64085;54.974;73.410;2023-05-10T14:03:42;7.57;;;3.65;;
75504;SDS011;64085;54.974;73.410;2023-05-10T14:06:07;5.55;;;3.60;;
75504;SDS011;64085;54.974;73.410;2023-05-10T14:08:34;7.65;;;4.63;;
75504;SDS011;64085;54.974;73.410;2023-05-10T14:11:00;9.20;;;4.30;;
75504;SDS011;64085;54.974;73.410;2023-05-10T14:13:26;9.43;;;4.40;;
75504;SDS011;64085;54.974;73.410;2023-05-10T14:16:10;7.40;;;3.85;;
75504;SDS011;64085;54.974;73.410;2023-05-10T14:18:54;6.78;;;4.25;;
75504;SDS011;64085;54.974;73.410;2023-05-10T14:21:19;7.80;;;4.90;;
75504;SDS011;64085;54.974;73.410;2023-05-10T14:23:45;6.95;;;4.00;;
75504;SDS011;64085;54.974;73.410;2023-05-10T14:26:11;12.70;;;4.95;;
75504;SDS011;64085;54.974;73.410;2023-05-10T14:28:55;9.73;;;5.32;;
75504;SDS011;64085;54.974;73.410;2023-05-10T14:31:21;9.20;;;5.00;;
75504;SDS011;64085;54.974;73.410;2023-05-10T14:34:05;9.95;;;5.00;;
75504;SDS011;64085;54.974;73.410;2023-05-10T14:36:30;8.30;;;5.53;;
75504;SDS011;64085;54.974;73.410;2023-05-10T14:38:56;8.02;;;5.32;;
75504;SDS011;64085;54.974;73.410;2023-05-10T14:41:22;9.00;;;5.90;;
75504;SDS011;64085;54.974;73.410;2023-05-10T14:43:48;8.93;;;5.00;;
75504;SDS011;64085;54.974;73.410;2023-05-10T14:46:32;14.85;;;7.88;;
75504;SDS011;64085;54.974;73.410;2023-05-10T14:48:57;41.08;;;13.90;;
75504;SDS011;64085;54.974;73.410;2023-05-10T14:51:23;51.92;;;16.05;;
75504;SDS011;64085;54.974;73.410;2023-05-10T14:53:48;23.23;;;8.95;;
75504;SDS011;64085;54.974;73.410;2023-05-10T14:58:59;70.93;;;20.80;;
75504;SDS011;64085;54.974;73.410;2023-05-10T15:01:25;67.65;;;21.65;;
75504;SDS011;64085;54.974;73.410;2023-05-10T15:03:51;43.72;;;15.90;;
75504;SDS011;64085;54.974;73.410;2023-05-10T15:06:16;32.60;;;12.20;;
75504;SDS011;64085;54.974;73.410;2023-05-10T15:11:28;25.60;;;10.43;;
75504;SDS011;64085;54.974;73.410;2023-05-10T15:13:54;15.82;;;7.95;;
75504;SDS011;64085;54.974;73.410;2023-05-10T15:16:20;14.75;;;8.63;;
75504;SDS011;64085;54.974;73.410;2023-05-10T15:18:46;16.63;;;8.02;;
75504;SDS011;64085;54.974;73.410;2023-05-10T15:21:11;14.18;;;7.97;;
75504;SDS011;64085;54.974;73.410;2023-05-10T15:23:37;9.02;;;5.63;;
75504;SDS011;64085;54.974;73.410;2023-05-10T15:26:03;14.32;;;7.28;;
75504;SDS011;64085;54.974;73.410;2023-05-10T15:28:29;16.13;;;7.30;;
75504;SDS011;64085;54.974;73.410;2023-05-10T15:30:55;9.15;;;5.05;;
75504;SDS011;64085;54.974;73.410;2023-05-10T15:33:21;12.85;;;7.47;;
75504;SDS011;64085;54.974;73.410;2023-05-10T15:35:47;8.90;;;5.20;;
75504;SDS011;64085;54.974;73.410;2023-05-10T15:38:13;16.70;;;5.78;;
75504;SDS011;64085;54.974;73.410;2023-05-10T15:40:57;10.23;;;5.18;;
75504;SDS011;64085;54.974;73.410;2023-05-10T15:43:23;7.13;;;4.63;;
75504;SDS011;64085;54.974;73.410;2023-05-10T15:45:49;5.38;;;3.60;;
75504;SDS011;64085;54.974;73.410;2023-05-10T15:48:15;8.77;;;4.47;;
75504;SDS011;64085;54.974;73.410;2023-05-10T15:50:41;7.25;;;5.38;;
75504;SDS011;64085;54.974;73.410;2023-05-10T15:53:07;12.80;;;5.97;;
75504;SDS011;64085;54.974;73.410;2023-05-10T15:55:32;12.35;;;6.90;;
75504;SDS011;64085;54.974;73.410;2023-05-10T15:57:59;14.18;;;6.32;;
75504;SDS011;64085;54.974;73.410;2023-05-10T16:00:25;12.20;;;6.32;;
75504;SDS011;64085;54.974;73.410;2023-05-10T16:03:27;12.90;;;6.82;;
75504;SDS011;64085;54.974;73.410;2023-05-10T16:05:53;15.13;;;7.78;;
75504;SDS011;64085;54.974;73.410;2023-05-10T16:08:19;9.23;;;5.90;;
75504;SDS011;64085;54.974;73.410;2023-05-10T16:10:45;10.02;;;8.07;;
75504;SDS011;64085;54.974;73.410;2023-05-10T16:13:10;5.18;;;3.42;;
75504;SDS011;64085;54.974;73.410;2023-05-10T16:15:36;3.92;;;3.15;;
75504;SDS011;64085;54.974;73.410;2023-05-10T16:18:02;7.35;;;4.05;;
75504;SDS011;64085;54.974;73.410;2023-05-10T16:20:27;7.15;;;5.05;;
75504;SDS011;64085;54.974;73.410;2023-05-10T16:22:54;7.15;;;3.65;;
75504;SDS011;64085;54.974;73.410;2023-05-10T16:25:20;8.57;;;4.40;;
75504;SDS011;64085;54.974;73.410;2023-05-10T16:27:46;10.35;;;4.72;;
75504;SDS011;64085;54.974;73.410;2023-05-10T16:30:11;9.95;;;4.20;;
75504;SDS011;64085;54.974;73.410;2023-05-10T16:32:38;8.43;;;3.63;;
75504;SDS011;64085;54.974;73.410;2023-05-10T16:35:04;4.07;;;3.67;;
75504;SDS011;64085;54.974;73.410;2023-05-10T16:37:30;6.53;;;4.45;;
75504;SDS011;64085;54.974;73.410;2023-05-10T16:39:55;9.20;;;5.70;;
75504;SDS011;64085;54.974;73.410;2023-05-10T16:45:05;7.78;;;4.43;;
75504;SDS011;64085;54.974;73.410;2023-05-10T16:47:33;6.22;;;4.65;;
75504;SDS011;64085;54.974;73.410;2023-05-10T16:50:00;6.55;;;4.72;;
75504;SDS011;64085;54.974;73.410;2023-05-10T16:52:26;5.22;;;3.60;;
75504;SDS011;64085;54.974;73.410;2023-05-10T16:54:55;5.35;;;3.63;;
75504;SDS011;64085;54.974;73.410;2023-05-10T16:57:21;5.03;;;3.78;;
75504;SDS011;64085;54.974;73.410;2023-05-10T16:59:47;5.55;;;3.78;;
75504;SDS011;64085;54.974;73.410;2023-05-10T17:02:13;8.57;;;4.50;;
75504;SDS011;64085;54.974;73.410;2023-05-10T17:04:40;4.47;;;3.72;;
75504;SDS011;64085;54.974;73.410;2023-05-10T17:07:08;5.05;;;3.40;;
75504;SDS011;64085;54.974;73.410;2023-05-10T17:09:35;8.43;;;4.15;;